createdAt,value
2023-01-02T00:00:46.244Z,2.67
2023-01-02T00:03:13.922Z,2.70
2023-01-02T00:05:41.653Z,2.27
2023-01-02T00:08:09.399Z,2.90
2023-01-02T00:10:37.276Z,2.87
2023-01-02T00:13:04.868Z,2.70
2023-01-02T00:15:32.852Z,2.63
2023-01-02T00:18:01.761Z,2.70
2023-01-02T00:20:29.303Z,2.20
2023-01-02T00:22:56.853Z,2.60
2023-01-02T00:25:24.343Z,2.83
2023-01-02T00:27:51.852Z,2.80
2023-01-02T00:30:19.529Z,3.17
2023-01-02T00:32:47.088Z,2.50
2023-01-02T00:35:16.172Z,2.50
2023-01-02T00:37:43.729Z,2.70
2023-01-02T00:40:13.752Z,2.83
2023-01-02T00:42:41.528Z,2.57
2023-01-02T00:45:10.970Z,2.60
2023-01-02T00:47:38.582Z,2.70
2023-01-02T00:50:07.640Z,2.47
2023-01-02T00:52:36.456Z,2.80
2023-01-02T00:55:04.265Z,2.13
2023-01-02T00:57:31.818Z,2.73
2023-01-02T00:59:59.503Z,2.90
2023-01-02T01:02:27.493Z,2.70
2023-01-02T01:04:55.221Z,2.97
2023-01-02T01:07:22.768Z,2.67
2023-01-02T01:09:51.638Z,3.00
2023-01-02T01:12:19.167Z,2.93
2023-01-02T01:14:46.670Z,2.53
2023-01-02T01:17:14.175Z,3.10
2023-01-02T01:19:41.669Z,2.33
2023-01-02T01:22:09.266Z,2.67
2023-01-02T01:24:36.807Z,2.53
2023-01-02T01:27:05.741Z,2.93
2023-01-02T01:29:33.368Z,2.67
2023-01-02T01:32:00.915Z,3.33
2023-01-02T01:34:28.456Z,3.07
2023-01-02T01:36:55.973Z,3.33
2023-01-02T01:39:23.459Z,3.27
2023-01-02T01:41:51.125Z,3.30
2023-01-02T01:44:49.915Z,2.97
2023-01-02T01:47:26.976Z,2.60
2023-01-02T01:50:05.475Z,3.00
2023-01-02T01:52:36.049Z,2.57
2023-01-02T01:55:10.621Z,2.63
2023-01-02T01:57:42.175Z,2.73
2023-01-02T02:00:13.018Z,2.87
2023-01-02T02:02:45.957Z,2.60
2023-01-02T02:05:18.629Z,2.60
2023-01-02T02:07:52.506Z,2.50
2023-01-02T02:10:20.365Z,1.77
2023-01-02T02:12:47.868Z,2.63
2023-01-02T02:15:21.663Z,2.63
2023-01-02T02:17:59.581Z,2.40
2023-01-02T02:20:36.710Z,2.53
2023-01-02T02:23:33.560Z,3.10
2023-01-02T02:26:31.747Z,1.93
2023-01-02T02:29:30.939Z,2.03
2023-01-02T02:32:10.081Z,1.70
2023-01-02T02:34:46.857Z,2.07
2023-01-02T02:37:21.960Z,1.90
2023-01-02T02:40:00.278Z,2.20
2023-01-02T02:42:37.212Z,2.50
2023-01-02T02:45:12.025Z,2.50
2023-01-02T02:47:48.461Z,2.60
2023-01-02T02:50:24.279Z,2.63
2023-01-02T02:52:59.360Z,2.10
2023-01-02T02:55:31.692Z,2.10
2023-01-02T02:58:01.305Z,2.20
2023-01-02T03:00:28.889Z,2.63
2023-01-02T03:02:58.400Z,2.23
2023-01-02T03:05:32.618Z,2.47
2023-01-02T03:08:08.253Z,2.43
2023-01-02T03:10:46.939Z,2.70
2023-01-02T03:13:22.861Z,2.27
2023-01-02T03:15:59.844Z,2.30
2023-01-02T03:18:36.683Z,2.40
2023-01-02T03:21:08.667Z,2.27
2023-01-02T03:23:43.285Z,2.47
2023-01-02T03:26:13.101Z,2.67
2023-01-02T03:28:43.927Z,2.60
2023-01-02T03:31:17.029Z,2.37
2023-01-02T03:33:51.665Z,2.97
2023-01-02T03:36:24.709Z,2.30
2023-01-02T03:39:00.112Z,2.30
2023-01-02T03:41:32.657Z,2.30
2023-01-02T03:44:02.511Z,2.80
2023-01-02T03:46:38.264Z,2.80
2023-01-02T03:49:12.868Z,2.77
2023-01-02T03:51:41.655Z,3.03
2023-01-02T03:54:10.495Z,2.20
2023-01-02T03:56:49.145Z,2.67
2023-01-02T03:59:26.175Z,2.70
2023-01-02T04:02:01.881Z,2.33
2023-01-02T04:04:39.602Z,2.43
2023-01-02T04:07:13.223Z,2.40
2023-01-02T04:09:42.562Z,2.30
2023-01-02T04:12:15.253Z,2.87
2023-01-02T04:14:46.615Z,2.57
2023-01-02T04:17:16.655Z,2.60
2023-01-02T04:19:50.864Z,2.60
2023-01-02T04:22:23.613Z,2.40
2023-01-02T04:24:56.974Z,2.13
2023-01-02T04:27:28.336Z,3.10
2023-01-02T04:29:57.071Z,2.80
2023-01-02T04:32:29.896Z,3.07
2023-01-02T04:35:01.731Z,2.80
2023-01-02T04:37:31.183Z,2.90
2023-01-02T04:40:03.557Z,2.87
2023-01-02T04:42:31.376Z,2.40
2023-01-02T04:44:58.982Z,2.70
2023-01-02T04:47:26.585Z,2.57
2023-01-02T04:49:54.211Z,2.53
2023-01-02T04:52:23.090Z,2.73
2023-01-02T04:54:50.638Z,3.27
2023-01-02T04:57:18.202Z,2.20
2023-01-02T04:59:45.719Z,3.27
2023-01-02T05:02:13.413Z,2.33
2023-01-02T05:04:40.996Z,2.70
2023-01-02T05:07:08.751Z,2.80
2023-01-02T05:09:37.671Z,2.63
2023-01-02T05:12:05.753Z,2.87
2023-01-02T05:14:33.640Z,2.70
2023-01-02T05:17:01.226Z,2.93
2023-01-02T05:19:28.817Z,2.87
2023-01-02T05:22:14.224Z,2.33
2023-01-02T05:24:43.092Z,2.87
2023-01-02T05:27:10.670Z,2.63
2023-01-02T05:29:38.216Z,2.20
2023-01-02T05:32:06.149Z,2.57
2023-01-02T05:34:33.683Z,2.37
2023-01-02T05:37:01.160Z,2.67
2023-01-02T05:39:28.678Z,2.63
2023-01-02T05:41:57.582Z,3.10
2023-01-02T05:44:25.109Z,2.67
2023-01-02T05:46:54.668Z,2.70
2023-01-02T05:49:22.222Z,2.33
2023-01-02T05:51:49.782Z,2.33
2023-01-02T05:54:18.401Z,2.73
2023-01-02T05:56:45.867Z,2.37
2023-01-02T05:59:16.187Z,2.53
2023-01-02T06:01:46.131Z,1.90
2023-01-02T06:04:19.445Z,2.20
2023-01-02T06:06:47.995Z,2.83
2023-01-02T06:09:16.897Z,2.77
2023-01-02T06:11:45.897Z,2.33
2023-01-02T06:14:14.947Z,2.50
2023-01-02T06:16:42.718Z,2.03
2023-01-02T06:19:10.314Z,2.60
2023-01-02T06:21:37.948Z,2.33
2023-01-02T06:24:05.609Z,2.50
2023-01-02T06:26:35.473Z,2.30
2023-01-02T06:29:04.641Z,2.40
2023-01-02T06:31:34.107Z,2.43
2023-01-02T06:34:03.505Z,2.30
2023-01-02T06:36:33.225Z,2.07
2023-01-02T06:39:01.068Z,2.17
2023-01-02T06:41:28.628Z,2.70
2023-01-02T06:43:56.111Z,2.40
2023-01-02T06:46:25.073Z,2.20
2023-01-02T06:48:54.198Z,2.37
2023-01-02T06:51:23.864Z,2.20
2023-01-02T06:53:51.826Z,2.90
2023-01-02T06:56:20.715Z,1.90
2023-01-02T06:58:48.345Z,2.60
2023-01-02T07:07:01.852Z,2.37
2023-01-02T07:09:31.435Z,2.20
2023-01-02T07:12:01.866Z,2.40
2023-01-02T07:17:20.927Z,2.40
2023-01-02T07:20:03.549Z,2.60
2023-01-02T07:22:32.512Z,1.90
2023-01-02T07:28:24.905Z,2.27
2023-01-02T07:30:55.773Z,1.93
2023-01-02T07:33:31.146Z,2.30
2023-01-02T07:38:52.570Z,2.10
2023-01-02T07:41:44.280Z,2.23
2023-01-02T07:47:39.362Z,2.63
2023-01-02T07:50:33.589Z,2.20
2023-01-02T07:55:57.173Z,2.47
2023-01-02T07:58:28.964Z,2.03
2023-01-02T08:07:15.528Z,2.10
2023-01-02T08:10:31.499Z,2.03
2023-01-02T08:13:13.171Z,2.30
2023-01-02T08:15:43.323Z,2.23
2023-01-02T08:18:16.219Z,1.90
2023-01-02T08:20:51.603Z,1.80
2023-01-02T08:32:48.303Z,2.23
2023-01-02T08:35:38.980Z,2.20
2023-01-02T08:38:15.092Z,2.10
2023-01-02T08:40:45.236Z,1.83
2023-01-02T08:43:12.928Z,1.97
2023-01-02T08:45:42.004Z,1.70
2023-01-02T08:48:19.902Z,1.90
2023-01-02T08:50:50.905Z,2.20
2023-01-02T08:53:18.726Z,1.70
2023-01-02T08:55:46.498Z,2.17
2023-01-02T08:58:14.773Z,1.87
2023-01-02T09:00:43.664Z,2.33
2023-01-02T09:03:11.245Z,2.00
2023-01-02T09:05:38.837Z,2.20
2023-01-02T09:08:06.502Z,2.00
2023-01-02T09:10:34.227Z,1.90
2023-01-02T09:13:01.999Z,1.83
2023-01-02T09:15:29.588Z,2.10
2023-01-02T09:17:58.548Z,1.20
2023-01-02T09:20:27.556Z,1.63
2023-01-02T09:22:55.272Z,1.63
2023-01-02T09:25:26.192Z,1.60
2023-01-02T09:27:53.775Z,1.80
2023-01-02T09:30:26.251Z,1.93
2023-01-02T09:32:55.125Z,2.13
2023-01-02T09:35:26.899Z,2.00
2023-01-02T09:37:54.428Z,1.30
2023-01-02T09:40:42.673Z,2.20
2023-01-02T09:43:14.459Z,1.60
2023-01-02T09:45:45.912Z,1.47
2023-01-02T09:48:22.304Z,1.83
2023-01-02T09:50:51.848Z,1.83
2023-01-02T09:53:26.266Z,1.47
2023-01-02T09:56:01.428Z,2.23
2023-01-02T09:58:38.328Z,1.63
2023-01-02T10:01:13.026Z,2.30
2023-01-02T10:03:49.549Z,1.67
2023-01-02T10:06:25.174Z,1.47
2023-01-02T10:09:01.124Z,2.53
2023-01-02T10:11:41.996Z,1.70
2023-01-02T10:14:19.213Z,1.80
2023-01-02T10:16:52.980Z,1.97
2023-01-02T10:19:25.851Z,2.10
2023-01-02T10:21:59.933Z,1.90
2023-01-02T10:24:40.279Z,1.90
2023-01-02T10:27:16.949Z,1.40
2023-01-02T10:29:51.355Z,1.93
2023-01-02T10:32:25.536Z,1.90
2023-01-02T10:35:03.199Z,1.60
2023-01-02T10:37:34.268Z,1.73
2023-01-02T10:40:03.040Z,1.77
2023-01-02T10:42:33.729Z,1.80
2023-01-02T10:45:11.462Z,1.87
2023-01-02T10:47:44.510Z,1.50
2023-01-02T10:50:19.137Z,2.10
2023-01-02T10:52:52.848Z,2.00
2023-01-02T10:55:45.715Z,1.83
2023-01-02T10:58:20.658Z,1.87
2023-01-02T11:00:50.819Z,1.33
2023-01-02T11:03:28.972Z,1.57
2023-01-02T11:06:26.009Z,1.30
2023-01-02T11:09:04.736Z,1.90
2023-01-02T11:11:41.109Z,1.93
2023-01-02T11:14:11.493Z,1.70
2023-01-02T11:19:29.426Z,1.60
2023-01-02T11:21:58.984Z,1.73
2023-01-02T11:24:29.785Z,2.17
2023-01-02T11:27:01.512Z,2.33
2023-01-02T11:32:27.312Z,1.70
2023-01-02T11:35:03.272Z,2.00
2023-01-02T11:37:53.333Z,1.43
2023-01-02T11:40:40.974Z,1.93
2023-01-02T11:43:34.071Z,1.20
2023-01-02T13:08:34.822Z,1.80
2023-01-02T13:11:11.767Z,2.23
2023-01-02T13:20:14.953Z,1.87
2023-01-02T13:23:27.938Z,2.23
2023-01-02T13:26:04.545Z,2.03
2023-01-02T13:28:32.311Z,1.60
2023-01-02T13:31:44.066Z,2.33
2023-01-02T13:33:52.629Z,2.00
2023-01-02T13:36:23.559Z,1.90
2023-01-02T13:38:54.279Z,1.90
2023-01-02T13:41:23.967Z,1.90
2023-01-02T13:43:55.158Z,2.00
2023-01-02T13:47:01.389Z,2.60
2023-01-02T13:49:20.568Z,1.80
2023-01-02T13:51:48.472Z,2.43
2023-01-02T13:54:19.437Z,1.73
2023-01-02T13:57:31.590Z,2.10
2023-01-02T14:00:00.397Z,2.13
2023-01-02T14:02:28.912Z,2.00
2023-01-02T14:04:57.142Z,1.30
2023-01-02T14:07:44.108Z,1.87
2023-01-02T14:10:28.187Z,1.60
2023-01-02T14:21:36.358Z,1.63
2023-01-02T14:24:48.844Z,1.60
2023-01-02T14:28:04.692Z,2.30
2023-01-02T14:30:36.389Z,1.80
2023-01-02T14:33:11.756Z,1.50
2023-01-02T14:36:56.251Z,1.77
2023-01-02T14:39:30.423Z,2.20
2023-01-02T14:43:05.209Z,1.70
2023-01-02T14:45:45.503Z,1.73
2023-01-02T14:48:22.961Z,1.80
2023-01-02T14:51:06.116Z,1.90
2023-01-02T14:53:37.179Z,1.80
2023-01-02T14:56:15.831Z,1.83
2023-01-02T14:58:45.766Z,1.90
2023-01-02T15:01:42.529Z,2.00
2023-01-02T15:04:42.067Z,1.97
2023-01-02T15:07:21.690Z,1.63
2023-01-02T15:09:54.744Z,1.83
2023-01-02T15:12:45.663Z,1.70
2023-01-02T15:15:15.042Z,2.07
2023-01-02T15:17:50.727Z,1.60
2023-01-02T15:20:23.568Z,1.90
2023-01-02T15:22:53.396Z,1.70
2023-01-02T15:25:35.415Z,2.37
2023-01-02T15:28:08.032Z,1.80
2023-01-02T15:30:40.789Z,1.97
2023-01-02T15:33:27.404Z,1.73
2023-01-02T15:35:57.861Z,1.63
2023-01-02T15:38:29.059Z,1.97
2023-01-02T15:40:57.826Z,2.20
2023-01-02T15:43:46.977Z,1.83
2023-01-02T15:46:16.288Z,2.00
2023-01-02T15:48:45.294Z,1.93
2023-01-02T15:51:40.422Z,1.93
2023-01-02T15:54:14.142Z,2.00
2023-01-02T15:56:42.365Z,2.10
2023-01-02T15:59:26.449Z,2.10
2023-01-02T16:01:54.227Z,2.17
2023-01-02T16:04:26.680Z,1.70
2023-01-02T16:06:54.890Z,1.20
2023-01-02T16:09:26.694Z,1.03
2023-01-02T16:11:57.257Z,1.20
2023-01-02T16:14:34.399Z,1.40
2023-01-02T16:17:05.063Z,1.00
2023-01-02T16:19:37.023Z,1.43
2023-01-02T16:22:18.586Z,1.10
2023-01-02T16:24:50.594Z,1.20
2023-01-02T16:27:26.229Z,0.97
2023-01-02T16:29:55.721Z,1.03
2023-01-02T16:32:27.651Z,0.93
2023-01-02T16:35:03.529Z,1.30
2023-01-02T16:37:36.054Z,0.87
2023-01-02T16:41:00.909Z,0.90
2023-01-02T16:43:25.663Z,0.97
2023-01-02T16:45:55.106Z,1.03
2023-01-02T16:48:25.352Z,1.03
2023-01-02T16:50:54.974Z,1.10
2023-01-02T16:53:25.529Z,1.03
2023-01-02T16:55:54.011Z,1.17
2023-01-02T16:58:22.209Z,1.43
2023-01-02T17:00:50.546Z,1.33
2023-01-02T17:03:22.985Z,0.83
2023-01-02T17:06:01.292Z,1.03
2023-01-02T17:08:30.788Z,1.30
2023-01-02T17:10:58.805Z,1.00
2023-01-02T17:13:26.844Z,1.03
2023-01-02T17:15:54.509Z,1.10
2023-01-02T17:18:23.372Z,1.10
2023-01-02T17:20:51.115Z,0.90
2023-01-02T17:23:19.749Z,2.37
2023-01-02T17:25:47.853Z,1.10
2023-01-02T17:28:15.736Z,0.87
2023-01-02T17:30:45.728Z,1.10
2023-01-02T17:33:14.948Z,0.90
2023-01-02T17:35:49.791Z,0.80
2023-01-02T17:38:20.788Z,1.00
2023-01-02T17:40:48.878Z,1.00
2023-01-02T17:43:16.457Z,0.83
2023-01-02T17:45:44.059Z,1.27
2023-01-02T17:48:14.282Z,1.00
2023-01-02T17:51:00.483Z,0.83
2023-01-02T17:53:28.242Z,0.80
2023-01-02T17:56:20.766Z,1.00
2023-01-02T17:58:47.868Z,0.70
2023-01-02T18:01:17.609Z,0.97
2023-01-02T18:03:45.415Z,1.10
2023-01-02T18:06:15.339Z,0.87
2023-01-02T18:08:43.096Z,0.90
2023-01-02T18:11:13.649Z,0.87
2023-01-02T18:13:44.058Z,0.90
2023-01-02T18:16:16.200Z,1.07
2023-01-02T18:18:45.614Z,0.90
2023-01-02T18:21:16.235Z,0.83
2023-01-02T18:23:43.823Z,0.70
2023-01-02T18:26:14.258Z,0.73
2023-01-02T18:28:50.561Z,0.80
2023-01-02T18:31:20.801Z,0.60
2023-01-02T18:33:48.611Z,0.87
2023-01-02T18:36:21.070Z,0.70
2023-01-02T18:38:50.794Z,0.70
2023-01-02T18:41:23.398Z,0.80
2023-01-02T18:43:54.186Z,0.80
2023-01-02T18:46:23.676Z,0.63
2023-01-02T18:48:52.058Z,0.87
2023-01-02T18:51:24.118Z,0.80
2023-01-02T18:53:53.320Z,0.70
2023-01-02T18:56:25.125Z,0.80
2023-01-02T18:59:00.988Z,0.97
2023-01-02T19:01:31.363Z,0.80
2023-01-02T19:04:24.114Z,0.70
2023-01-02T19:06:58.011Z,0.80
2023-01-02T19:09:30.358Z,1.00
2023-01-02T19:12:19.290Z,0.70
2023-01-02T19:14:46.853Z,1.00
2023-01-02T19:17:22.631Z,0.80
2023-01-02T19:19:50.977Z,1.10
2023-01-02T19:22:22.175Z,0.73
2023-01-02T19:24:50.515Z,0.93
2023-01-02T19:27:25.468Z,0.80
2023-01-02T19:29:54.252Z,0.70
2023-01-02T19:32:29.111Z,0.70
2023-01-02T19:34:59.286Z,0.70
2023-01-02T19:37:38.863Z,0.80
2023-01-02T19:40:18.675Z,0.73
2023-01-02T19:42:47.720Z,1.00
2023-01-02T19:45:19.118Z,0.83
2023-01-02T19:47:47.740Z,1.10
2023-01-02T19:50:17.774Z,0.83
2023-01-02T19:52:46.746Z,0.90
2023-01-02T19:55:14.830Z,0.73
2023-01-02T19:57:42.638Z,1.07
2023-01-02T20:00:13.303Z,0.87
2023-01-02T20:02:41.717Z,0.87
2023-01-02T20:05:09.915Z,0.90
2023-01-02T20:07:37.550Z,0.80
2023-01-02T20:10:08.617Z,0.90
2023-01-02T20:12:40.451Z,1.13
2023-01-02T20:15:10.312Z,0.80
2023-01-02T20:17:39.847Z,0.80
2023-01-02T20:20:09.927Z,0.60
2023-01-02T20:22:38.020Z,1.00
2023-01-02T20:25:08.182Z,0.70
2023-01-02T20:27:35.754Z,0.90
2023-01-02T20:30:04.182Z,0.70
2023-01-02T20:32:31.742Z,0.80
2023-01-02T20:35:00.012Z,0.90
2023-01-02T20:37:27.673Z,0.70
2023-01-02T20:39:55.308Z,0.80
2023-01-02T20:42:24.141Z,0.70
2023-01-02T20:44:52.484Z,0.47
2023-01-02T20:47:20.186Z,0.80
2023-01-02T20:49:48.093Z,0.80
2023-01-02T20:52:15.652Z,0.70
2023-01-02T20:54:43.471Z,1.00
2023-01-02T20:57:11.032Z,0.93
2023-01-02T20:59:39.963Z,0.70
2023-01-02T21:02:07.718Z,1.83
2023-01-02T21:04:37.215Z,1.00
2023-01-02T21:07:05.564Z,1.10
2023-01-02T21:09:33.390Z,0.70
2023-01-02T21:12:01.109Z,0.80
2023-01-02T21:14:32.473Z,0.90
2023-01-02T21:17:06.187Z,0.70
2023-01-02T21:19:33.735Z,0.77
2023-01-02T21:22:01.257Z,0.77
2023-01-02T21:24:28.891Z,1.10
2023-01-02T21:26:56.405Z,1.00
2023-01-02T21:29:23.933Z,1.10
2023-01-02T21:31:51.586Z,0.90
2023-01-02T21:34:20.570Z,1.10
2023-01-02T21:36:48.391Z,1.00
2023-01-02T21:39:15.973Z,0.80
2023-01-02T21:42:00.897Z,1.03
2023-01-02T21:44:28.473Z,1.00
2023-01-02T21:47:07.188Z,1.10
2023-01-02T21:49:36.453Z,1.07
2023-01-02T21:52:04.006Z,0.93
2023-01-02T21:54:31.941Z,0.97
2023-01-02T21:56:59.534Z,1.20
2023-01-02T21:59:27.893Z,0.80
2023-01-02T22:01:56.769Z,1.10
2023-01-02T22:04:24.421Z,0.80
2023-01-02T22:09:40.971Z,1.13
2023-01-02T22:12:08.964Z,1.23
2023-01-02T22:14:38.169Z,1.17
2023-01-02T22:17:07.777Z,1.23
2023-01-02T22:19:36.426Z,1.10
2023-01-02T22:22:05.516Z,1.03
2023-01-02T22:24:34.762Z,1.33
2023-01-02T22:27:07.725Z,0.70
2023-01-02T22:30:09.828Z,1.10
2023-01-02T22:32:24.379Z,1.90
2023-01-02T22:34:52.656Z,1.33
2023-01-02T22:37:23.136Z,2.33
2023-01-02T22:39:50.997Z,1.10
2023-01-02T22:45:29.565Z,1.20
2023-01-02T22:47:59.930Z,1.10
2023-01-02T22:50:29.354Z,1.07
2023-01-02T22:52:58.387Z,1.17
2023-01-02T22:55:25.896Z,1.43
2023-01-02T22:57:53.475Z,0.97
2023-01-02T23:00:23.272Z,1.03
2023-01-02T23:02:51.247Z,1.37
2023-01-02T23:05:21.102Z,1.00
2023-01-02T23:07:49.923Z,0.80
2023-01-02T23:10:19.044Z,1.53
2023-01-02T23:12:46.653Z,1.30
2023-01-02T23:15:14.763Z,1.27
2023-01-02T23:17:59.894Z,1.40
2023-01-02T23:20:27.756Z,2.17
2023-01-02T23:22:55.425Z,1.50
2023-01-02T23:25:24.251Z,1.23
2023-01-02T23:27:52.143Z,1.30
2023-01-02T23:30:19.828Z,1.30
2023-01-02T23:32:47.345Z,1.70
2023-01-02T23:35:14.809Z,1.50
2023-01-02T23:37:42.545Z,1.50
2023-01-02T23:40:11.361Z,2.43
2023-01-02T23:42:40.248Z,1.03
2023-01-02T23:45:08.529Z,1.77
2023-01-02T23:47:36.003Z,1.73
2023-01-02T23:50:03.510Z,1.20
2023-01-02T23:52:31.084Z,1.20
2023-01-02T23:54:58.552Z,1.20
2023-01-02T23:57:26.049Z,1.27
2023-01-02T23:59:54.845Z,1.30
